createdAt,value
2018-03-06T00:00:09.925Z,39.22
2018-03-06T00:00:43.805Z,39.28
2018-03-06T00:01:17.682Z,39.95
2018-03-06T00:01:51.542Z,39.08
2018-03-06T00:02:33.428Z,41.28
2018-03-06T00:03:09.183Z,40.22
2018-03-06T00:03:43.688Z,38.13
2018-03-06T00:04:18.766Z,39.75
2018-03-06T00:04:52.692Z,40.25
2018-03-06T00:05:26.578Z,38.42
2018-03-06T00:06:01.782Z,39.22
2018-03-06T00:06:36.113Z,35.65
2018-03-06T00:07:11.916Z,38.20
2018-03-06T00:07:46.329Z,42.67
2018-03-06T00:08:20.292Z,38.00
2018-03-06T00:08:54.713Z,41.35
2018-03-06T00:09:29.549Z,41.20
2018-03-06T00:10:03.474Z,38.72
2018-03-06T00:10:38.444Z,39.60
2018-03-06T00:11:12.339Z,40.10
2018-03-06T00:11:46.220Z,38.65
2018-03-06T00:12:20.117Z,40.12
2018-03-06T00:12:53.994Z,38.38
2018-03-06T00:13:27.906Z,38.00
2018-03-06T00:14:01.818Z,40.50
2018-03-06T00:14:36.623Z,38.28
2018-03-06T00:15:10.545Z,38.40
2018-03-06T00:15:44.493Z,38.90
2018-03-06T00:16:18.980Z,37.30
2018-03-06T00:16:52.902Z,39.35
2018-03-06T00:17:26.813Z,40.97
2018-03-06T00:18:01.049Z,36.75
2018-03-06T00:18:34.930Z,38.65
2018-03-06T00:19:10.821Z,37.70
2018-03-06T00:19:46.299Z,38.13
2018-03-06T00:20:20.235Z,39.40
2018-03-06T00:20:54.098Z,39.35
2018-03-06T00:21:28.759Z,39.20
2018-03-06T00:22:02.637Z,37.00
2018-03-06T00:22:36.569Z,36.10
2018-03-06T00:23:10.532Z,38.72
2018-03-06T00:23:45.030Z,36.50
2018-03-06T00:24:18.932Z,38.30
2018-03-06T00:24:52.821Z,38.95
2018-03-06T00:25:26.921Z,38.38
2018-03-06T00:26:01.240Z,37.80
2018-03-06T00:26:35.120Z,36.92
2018-03-06T00:27:09.042Z,38.80
2018-03-06T00:27:43.372Z,36.22
2018-03-06T00:28:17.343Z,36.70
2018-03-06T00:28:51.225Z,39.55
2018-03-06T00:29:25.145Z,37.95
2018-03-06T00:29:59.068Z,37.65
2018-03-06T00:30:33.535Z,38.70
2018-03-06T00:31:07.546Z,38.08
2018-03-06T00:31:41.468Z,38.35
2018-03-06T00:32:15.339Z,38.08
2018-03-06T00:32:49.335Z,40.40
2018-03-06T00:33:23.436Z,38.72
2018-03-06T00:33:57.968Z,39.80
2018-03-06T00:34:31.910Z,35.90
2018-03-06T00:35:05.819Z,35.97
2018-03-06T00:35:39.861Z,38.38
2018-03-06T00:36:13.730Z,36.17
2018-03-06T00:36:47.606Z,35.67
2018-03-06T00:37:22.343Z,38.22
2018-03-06T00:37:56.227Z,36.80
2018-03-06T00:38:30.125Z,37.08
2018-03-06T00:39:04.278Z,36.40
2018-03-06T00:39:38.895Z,35.78
2018-03-06T00:40:12.776Z,38.17
2018-03-06T00:40:46.657Z,34.20
2018-03-06T00:41:20.898Z,36.35
2018-03-06T00:41:55.646Z,36.97
2018-03-06T00:42:30.520Z,37.17
2018-03-06T00:43:05.207Z,36.35
2018-03-06T00:43:39.148Z,36.22
2018-03-06T00:44:13.041Z,34.58
2018-03-06T00:44:46.980Z,36.67
2018-03-06T00:45:20.857Z,34.55
2018-03-06T00:45:54.720Z,36.50
2018-03-06T00:46:28.657Z,35.78
2018-03-06T00:47:02.541Z,37.03
2018-03-06T00:47:36.407Z,35.20
2018-03-06T00:48:10.308Z,35.08
2018-03-06T00:48:44.196Z,37.28
2018-03-06T00:49:18.466Z,37.45
2018-03-06T00:49:52.392Z,38.58
2018-03-06T00:50:26.322Z,35.50
2018-03-06T00:51:00.230Z,34.80
2018-03-06T00:51:34.133Z,36.53
2018-03-06T00:52:08.021Z,36.90
2018-03-06T00:52:41.900Z,35.55
2018-03-06T00:53:16.068Z,34.53
2018-03-06T00:53:49.943Z,34.75
2018-03-06T00:54:23.884Z,35.63
2018-03-06T00:54:57.780Z,35.50
2018-03-06T00:55:31.689Z,36.20
2018-03-06T00:56:06.159Z,34.10
2018-03-06T00:56:40.081Z,35.10
2018-03-06T00:57:13.975Z,33.47
2018-03-06T00:57:48.376Z,35.97
2018-03-06T00:58:22.810Z,34.53
2018-03-06T00:58:56.912Z,35.75
2018-03-06T00:59:30.870Z,36.05
2018-03-06T01:00:04.752Z,36.30
2018-03-06T01:00:39.654Z,34.90
2018-03-06T01:01:18.098Z,34.88
2018-03-06T01:01:52.124Z,36.40
2018-03-06T01:02:26.033Z,35.45
2018-03-06T01:02:59.981Z,36.00
2018-03-06T01:03:34.309Z,34.15
2018-03-06T01:04:08.322Z,34.38
2018-03-06T01:04:42.627Z,34.28
2018-03-06T01:05:16.635Z,35.92
2018-03-06T01:05:50.583Z,36.25
2018-03-06T01:06:24.464Z,35.88
2018-03-06T01:06:58.412Z,34.35
2018-03-06T01:07:32.272Z,34.97
2018-03-06T01:08:07.082Z,33.83
2018-03-06T01:08:40.952Z,35.42
2018-03-06T01:09:14.885Z,36.13
2018-03-06T01:09:48.832Z,36.85
2018-03-06T01:10:23.403Z,34.55
2018-03-06T01:10:57.330Z,37.22
2018-03-06T01:11:31.217Z,35.55
2018-03-06T01:12:05.304Z,38.17
2018-03-06T01:12:39.182Z,36.10
2018-03-06T01:13:13.094Z,35.35
2018-03-06T01:13:47.599Z,34.83
2018-03-06T01:14:21.521Z,35.85
2018-03-06T01:14:55.435Z,35.60
2018-03-06T01:15:29.356Z,34.72
2018-03-06T01:17:25.686Z,32.30
2018-03-06T01:18:00.280Z,35.85
2018-03-06T01:18:34.294Z,36.28
2018-03-06T01:19:08.466Z,35.78
2018-03-06T01:19:42.349Z,33.35
2018-03-06T01:20:16.276Z,36.28
2018-03-06T01:20:50.292Z,36.75
2018-03-06T01:21:24.176Z,36.42
2018-03-06T01:21:59.457Z,33.95
2018-03-06T01:22:33.325Z,34.05
2018-03-06T01:23:07.197Z,35.58
2018-03-06T01:23:41.113Z,35.15
2018-03-06T01:24:15.039Z,35.15
2018-03-06T01:24:48.950Z,35.35
2018-03-06T01:25:22.825Z,34.20
2018-03-06T01:25:56.721Z,37.60
2018-03-06T01:26:30.615Z,34.90
2018-03-06T01:27:04.555Z,35.38
2018-03-06T01:27:38.419Z,36.17
2018-03-06T01:28:12.423Z,35.85
2018-03-06T01:28:46.295Z,34.75
2018-03-06T01:29:20.189Z,36.22
2018-03-06T01:29:54.102Z,34.60
2018-03-06T01:30:28.020Z,35.85
2018-03-06T01:31:01.937Z,36.58
2018-03-06T01:31:35.885Z,37.72
2018-03-06T01:32:09.709Z,35.95
2018-03-06T01:32:43.659Z,34.20
2018-03-06T01:33:17.567Z,34.67
2018-03-06T01:33:51.434Z,36.53
2018-03-06T01:34:25.374Z,33.83
2018-03-06T01:34:59.258Z,34.92
2018-03-06T01:35:33.135Z,35.78
2018-03-06T01:36:07.271Z,35.40
2018-03-06T01:36:41.268Z,35.33
2018-03-06T01:37:15.168Z,33.83
2018-03-06T01:37:49.136Z,37.38
2018-03-06T01:38:23.011Z,36.03
2018-03-06T01:38:56.868Z,36.00
2018-03-06T01:39:30.808Z,35.15
2018-03-06T01:40:04.702Z,37.47
2018-03-06T01:40:38.597Z,36.08
2018-03-06T01:41:12.562Z,34.90
2018-03-06T01:41:46.491Z,36.20
2018-03-06T01:42:20.376Z,36.83
2018-03-06T01:42:54.273Z,34.20
2018-03-06T01:43:28.256Z,36.72
2018-03-06T01:44:03.132Z,35.38
2018-03-06T01:44:37.024Z,34.80
2018-03-06T01:45:10.918Z,34.95
2018-03-06T01:45:44.799Z,35.92
2018-03-06T01:46:18.715Z,34.50
2018-03-06T01:46:52.604Z,34.42
2018-03-06T01:47:26.489Z,38.65
2018-03-06T01:48:00.531Z,37.80
2018-03-06T01:48:34.354Z,34.03
2018-03-06T01:49:08.223Z,36.20
2018-03-06T01:49:42.107Z,36.10
2018-03-06T01:50:16.174Z,35.33
2018-03-06T01:50:50.258Z,37.30
2018-03-06T01:51:24.145Z,33.92
2018-03-06T01:51:58.021Z,34.60
2018-03-06T01:52:31.961Z,34.45
2018-03-06T01:53:05.829Z,35.42
2018-03-06T01:53:40.682Z,35.95
2018-03-06T01:54:14.565Z,34.50
2018-03-06T01:54:48.936Z,34.13
2018-03-06T01:55:22.824Z,34.85
2018-03-06T01:55:56.722Z,34.42
2018-03-06T01:56:30.813Z,36.53
2018-03-06T01:57:04.692Z,34.92
2018-03-06T01:57:38.573Z,36.30
2018-03-06T01:58:12.448Z,35.25
2018-03-06T01:58:46.340Z,36.60
2018-03-06T01:59:20.636Z,37.80
2018-03-06T01:59:54.638Z,35.53
2018-03-06T02:00:28.603Z,36.28
2018-03-06T02:01:02.536Z,35.95
2018-03-06T02:01:36.422Z,33.13
2018-03-06T02:02:10.390Z,34.45
2018-03-06T02:02:44.313Z,34.45
2018-03-06T02:03:18.276Z,34.40
2018-03-06T02:03:52.169Z,34.15
2018-03-06T02:04:26.065Z,34.55
2018-03-06T02:04:59.934Z,35.15
2018-03-06T02:05:33.807Z,36.60
2018-03-06T02:06:07.688Z,34.33
2018-03-06T02:06:41.580Z,34.38
2018-03-06T02:07:15.534Z,35.35
2018-03-06T02:07:49.445Z,35.08
2018-03-06T02:08:23.325Z,36.97
2018-03-06T02:08:57.215Z,33.45
2018-03-06T02:09:31.112Z,35.00
2018-03-06T02:10:04.991Z,37.92
2018-03-06T02:10:38.917Z,34.08
2018-03-06T02:11:12.802Z,35.13
2018-03-06T02:11:46.693Z,33.75
2018-03-06T02:12:20.724Z,35.45
2018-03-06T02:25:49.715Z,30.17
2018-03-06T02:26:23.587Z,30.67
2018-03-06T02:26:57.455Z,32.25
2018-03-06T02:27:31.343Z,33.38
2018-03-06T02:28:05.208Z,34.80
2018-03-06T02:28:39.125Z,35.42
2018-03-06T02:29:13.018Z,36.50
2018-03-06T02:29:46.921Z,35.97
2018-03-06T02:30:20.848Z,35.30
2018-03-06T02:30:54.739Z,34.03
2018-03-06T02:31:28.616Z,37.47
2018-03-06T02:32:02.493Z,35.80
2018-03-06T02:32:36.380Z,35.92
2018-03-06T02:33:10.381Z,36.38
2018-03-06T02:33:44.259Z,33.97
2018-03-06T02:34:18.156Z,37.42
2018-03-06T02:34:52.040Z,33.88
2018-03-06T02:35:25.984Z,35.50
2018-03-06T02:36:01.027Z,36.78
2018-03-06T02:36:34.900Z,37.22
2018-03-06T02:37:09.045Z,35.30
2018-03-06T02:37:42.983Z,37.78
2018-03-06T02:38:17.521Z,37.22
2018-03-06T02:38:51.400Z,37.75
2018-03-06T02:39:25.336Z,36.97
2018-03-06T02:39:59.218Z,36.60
2018-03-06T02:40:33.104Z,38.08
2018-03-06T02:41:07.009Z,38.25
2018-03-06T02:41:40.872Z,36.83
2018-03-06T02:42:14.778Z,38.05
2018-03-06T02:42:48.723Z,35.17
2018-03-06T02:43:22.640Z,36.90
2018-03-06T02:43:56.529Z,37.63
2018-03-06T02:44:30.411Z,35.63
2018-03-06T02:45:05.240Z,37.55
2018-03-06T02:45:39.137Z,35.28
2018-03-06T02:46:13.307Z,38.03
2018-03-06T02:46:47.427Z,35.25
2018-03-06T02:47:21.321Z,38.30
2018-03-06T02:47:55.627Z,36.92
2018-03-06T02:48:29.573Z,36.13
2018-03-06T02:49:03.461Z,33.70
2018-03-06T02:49:37.364Z,38.63
2018-03-06T02:50:11.850Z,36.95
2018-03-06T02:50:45.721Z,36.70
2018-03-06T02:51:19.612Z,37.65
2018-03-06T02:51:53.538Z,36.47
2018-03-06T02:52:27.410Z,34.38
2018-03-06T02:53:01.305Z,37.88
2018-03-06T02:53:35.402Z,35.28
2018-03-06T02:54:09.303Z,38.53
2018-03-06T02:54:43.190Z,39.30
2018-03-06T02:55:17.089Z,36.97
2018-03-06T02:55:50.978Z,37.80
2018-03-06T02:56:24.891Z,38.20
2018-03-06T02:56:58.994Z,38.13
2018-03-06T02:57:32.865Z,37.33
2018-03-06T02:58:06.758Z,35.13
2018-03-06T02:58:40.641Z,36.30
2018-03-06T02:59:14.540Z,37.65
2018-03-06T02:59:48.428Z,39.40
2018-03-06T03:00:22.322Z,37.22
2018-03-06T03:00:56.201Z,37.53
2018-03-06T03:01:30.137Z,37.95
2018-03-06T03:02:04.028Z,38.65
2018-03-06T03:02:37.916Z,37.10
2018-03-06T03:03:11.812Z,37.55
2018-03-06T03:03:45.704Z,38.58
2018-03-06T03:04:19.594Z,36.88
2018-03-06T03:04:53.481Z,38.17
2018-03-06T03:05:27.354Z,36.75
2018-03-06T03:06:01.234Z,37.25
2018-03-06T03:06:35.117Z,37.15
2018-03-06T03:07:09.009Z,38.60
2018-03-06T03:07:42.894Z,39.67
2018-03-06T03:08:16.785Z,36.40
2018-03-06T03:08:50.662Z,36.97
2018-03-06T03:09:24.675Z,35.72
2018-03-06T03:09:58.554Z,36.70
2018-03-06T03:10:32.449Z,38.40
2018-03-06T03:11:06.339Z,36.58
2018-03-06T03:11:40.235Z,37.47
2018-03-06T03:12:14.130Z,38.17
2018-03-06T03:12:48.021Z,37.33
2018-03-06T03:13:21.914Z,35.80
2018-03-06T03:13:55.793Z,35.72
2018-03-06T03:14:29.834Z,35.05
2018-03-06T03:15:03.709Z,36.00
2018-03-06T03:15:37.604Z,37.10
2018-03-06T03:16:11.493Z,37.17
2018-03-06T03:16:45.388Z,38.58
2018-03-06T03:17:19.284Z,36.15
2018-03-06T03:17:53.172Z,37.10
2018-03-06T03:18:27.073Z,36.67
2018-03-06T03:19:00.963Z,37.03
2018-03-06T03:19:34.870Z,36.70
2018-03-06T03:20:08.789Z,39.17
2018-03-06T03:20:42.675Z,37.10
2018-03-06T03:21:16.560Z,38.33
2018-03-06T03:21:50.470Z,39.17
2018-03-06T03:22:24.352Z,39.05
2018-03-06T03:22:58.264Z,39.45
2018-03-06T03:23:32.158Z,37.28
2018-03-06T03:24:06.040Z,41.10
2018-03-06T03:24:39.925Z,38.75
2018-03-06T03:25:13.800Z,38.38
2018-03-06T03:25:47.690Z,36.80
2018-03-06T03:26:21.571Z,40.72
2018-03-06T03:26:55.457Z,39.38
2018-03-06T03:27:29.325Z,36.42
2018-03-06T03:28:03.197Z,39.15
2018-03-06T03:28:37.097Z,37.33
2018-03-06T03:29:10.997Z,38.33
2018-03-06T03:29:45.370Z,38.00
2018-03-06T03:30:19.270Z,36.45
2018-03-06T03:30:53.158Z,38.33
2018-03-06T03:31:27.705Z,39.38
2018-03-06T03:32:01.592Z,37.75
2018-03-06T03:32:35.477Z,34.45
2018-03-06T03:33:09.395Z,40.12
2018-03-06T03:33:43.252Z,38.38
2018-03-06T03:34:17.143Z,38.05
2018-03-06T03:34:51.037Z,37.45
2018-03-06T03:35:24.932Z,38.35
2018-03-06T03:35:59.534Z,37.30
2018-03-06T03:36:33.412Z,38.35
2018-03-06T03:37:07.332Z,37.40
2018-03-06T03:37:41.240Z,37.83
2018-03-06T03:38:15.121Z,37.75
2018-03-06T03:38:49.011Z,39.28
2018-03-06T03:39:22.920Z,39.28
2018-03-06T03:39:56.846Z,38.17
2018-03-06T03:40:30.718Z,40.65
2018-03-06T03:41:04.600Z,40.42
2018-03-06T03:41:38.488Z,36.78
2018-03-06T03:42:13.382Z,40.47
2018-03-06T03:42:47.267Z,38.88
2018-03-06T03:43:21.152Z,36.20
2018-03-06T03:43:55.042Z,40.15
2018-03-06T03:44:29.342Z,39.95
2018-03-06T03:45:03.231Z,37.47
2018-03-06T03:45:37.135Z,38.58
2018-03-06T03:46:11.045Z,39.63
2018-03-06T03:46:44.915Z,38.28
2018-03-06T03:47:18.810Z,38.60
2018-03-06T03:47:52.701Z,36.92
2018-03-06T03:48:26.598Z,39.33
2018-03-06T03:49:00.478Z,38.88
2018-03-06T03:49:34.360Z,41.35
2018-03-06T03:50:08.261Z,38.88
2018-03-06T03:50:42.306Z,39.35
2018-03-06T03:51:16.193Z,39.70
2018-03-06T03:51:50.069Z,37.78
2018-03-06T03:52:23.991Z,37.33
2018-03-06T03:52:57.874Z,36.97
2018-03-06T03:53:31.747Z,41.70
2018-03-06T03:54:05.626Z,41.28
2018-03-06T03:54:39.523Z,36.95
2018-03-06T03:55:13.570Z,38.50
2018-03-06T03:55:47.465Z,39.17
2018-03-06T03:56:21.355Z,41.10
2018-03-06T03:56:55.234Z,38.75
2018-03-06T03:57:29.144Z,38.53
2018-03-06T03:58:03.017Z,38.88
2018-03-06T03:58:36.904Z,40.30
2018-03-06T03:59:10.777Z,38.33
2018-03-06T03:59:44.660Z,40.42
2018-03-06T04:00:18.534Z,39.65
2018-03-06T04:00:52.403Z,41.85
2018-03-06T04:01:26.308Z,38.35
2018-03-06T04:02:00.198Z,39.00
2018-03-06T04:02:34.093Z,39.78
2018-03-06T04:03:07.967Z,39.00
2018-03-06T04:03:41.848Z,39.28
2018-03-06T04:04:15.767Z,40.17
2018-03-06T04:04:50.548Z,38.75
2018-03-06T04:05:24.605Z,41.60
2018-03-06T04:05:58.501Z,41.47
2018-03-06T04:06:32.374Z,39.15
2018-03-06T04:07:06.252Z,38.47
2018-03-06T04:07:40.155Z,39.67
2018-03-06T04:08:14.052Z,38.60
2018-03-06T04:08:47.933Z,41.20
2018-03-06T04:09:21.807Z,41.40
2018-03-06T04:09:55.679Z,39.80
2018-03-06T04:10:29.558Z,37.72
2018-03-06T04:11:03.474Z,41.00
2018-03-06T04:11:37.371Z,41.53
2018-03-06T04:12:11.257Z,40.05
2018-03-06T04:12:45.149Z,40.60
2018-03-06T04:13:19.029Z,37.33
2018-03-06T04:13:52.924Z,38.92
2018-03-06T04:14:26.836Z,39.72
2018-03-06T04:15:00.733Z,39.22
2018-03-06T04:15:34.641Z,39.80
2018-03-06T04:16:08.517Z,40.47
2018-03-06T04:16:43.189Z,39.42
2018-03-06T04:17:17.157Z,39.10
2018-03-06T04:17:51.047Z,38.95
2018-03-06T04:18:24.962Z,39.97
2018-03-06T04:18:58.837Z,39.78
2018-03-06T04:19:32.714Z,40.65
2018-03-06T04:20:06.598Z,40.65
2018-03-06T04:20:40.607Z,41.00
2018-03-06T04:21:14.796Z,39.72
2018-03-06T04:21:48.703Z,39.97
2018-03-06T04:22:22.586Z,36.88
2018-03-06T04:22:56.483Z,41.75
2018-03-06T04:23:30.379Z,40.90
2018-03-06T04:24:04.268Z,38.88
2018-03-06T04:24:38.153Z,41.00
2018-03-06T04:25:12.250Z,42.00
2018-03-06T04:25:46.124Z,40.95
2018-03-06T04:26:20.013Z,41.35
2018-03-06T04:26:53.894Z,39.88
2018-03-06T04:27:27.794Z,41.75
2018-03-06T04:28:01.720Z,43.47
2018-03-06T04:28:35.634Z,40.25
2018-03-06T04:29:09.532Z,40.55
2018-03-06T04:29:43.436Z,39.67
2018-03-06T04:30:17.320Z,41.05
2018-03-06T04:30:51.211Z,41.97
2018-03-06T04:31:25.704Z,41.53
2018-03-06T04:31:59.609Z,38.33
2018-03-06T04:32:33.484Z,40.45
2018-03-06T04:33:07.385Z,41.00
2018-03-06T04:33:41.270Z,41.33
2018-03-06T04:34:15.141Z,41.65
2018-03-06T04:34:49.026Z,41.00
2018-03-06T04:35:22.908Z,41.67
2018-03-06T04:35:56.802Z,39.65
2018-03-06T04:36:30.689Z,41.25
2018-03-06T04:37:04.573Z,41.37
2018-03-06T04:37:38.460Z,40.17
2018-03-06T04:38:12.351Z,38.75
2018-03-06T04:38:46.253Z,41.15
2018-03-06T04:39:20.140Z,41.17
2018-03-06T04:39:54.037Z,39.97
2018-03-06T04:40:27.917Z,41.78
2018-03-06T04:41:01.815Z,39.95
2018-03-06T04:41:35.718Z,42.25
2018-03-06T04:42:09.606Z,41.88
2018-03-06T04:42:43.496Z,40.42
2018-03-06T04:43:17.420Z,41.08
2018-03-06T04:43:51.299Z,41.85
2018-03-06T04:44:25.196Z,39.83
2018-03-06T04:44:59.114Z,41.75
2018-03-06T04:45:33.020Z,44.40
2018-03-06T04:46:07.245Z,41.90
2018-03-06T04:46:41.145Z,40.25
2018-03-06T04:47:15.390Z,42.03
2018-03-06T04:47:49.289Z,42.60
2018-03-06T04:48:23.223Z,42.78
2018-03-06T04:48:57.836Z,42.35
2018-03-06T04:49:31.725Z,41.45
2018-03-06T04:50:05.610Z,42.45
2018-03-06T04:50:39.507Z,42.78
2018-03-06T04:51:13.415Z,41.13
2018-03-06T04:51:47.295Z,41.45
2018-03-06T04:52:21.177Z,41.92
2018-03-06T04:52:55.057Z,42.47
2018-03-06T04:53:28.957Z,42.75
2018-03-06T04:54:02.842Z,42.58
2018-03-06T04:54:36.742Z,42.88
2018-03-06T04:55:10.641Z,45.08
2018-03-06T04:55:45.998Z,40.35
2018-03-06T04:56:19.888Z,43.85
2018-03-06T04:56:53.774Z,43.58
2018-03-06T04:57:27.653Z,40.88
2018-03-06T04:58:01.532Z,41.00
2018-03-06T04:58:35.470Z,42.13
2018-03-06T04:59:09.368Z,40.63
2018-03-06T04:59:43.252Z,43.08
2018-03-06T05:00:17.150Z,41.50
2018-03-06T05:00:51.028Z,44.38
2018-03-06T05:01:24.946Z,42.83
2018-03-06T05:01:58.820Z,42.50
2018-03-06T05:02:32.715Z,43.85
2018-03-06T05:03:06.628Z,42.70
2018-03-06T05:03:40.529Z,43.35
2018-03-06T05:04:14.413Z,42.80
2018-03-06T05:04:48.307Z,41.90
2018-03-06T05:05:22.188Z,43.67
2018-03-06T05:05:56.074Z,41.97
2018-03-06T05:06:29.960Z,43.75
2018-03-06T05:07:03.829Z,42.38
2018-03-06T05:07:37.726Z,40.83
2018-03-06T05:08:11.860Z,43.83
2018-03-06T05:08:46.561Z,42.00
2018-03-06T05:09:20.499Z,43.17
2018-03-06T05:09:54.410Z,41.80
2018-03-06T05:10:28.305Z,42.00
2018-03-06T05:11:02.183Z,41.13
2018-03-06T05:11:36.197Z,42.20
2018-03-06T05:12:10.073Z,42.90
2018-03-06T05:12:43.976Z,42.80
2018-03-06T05:13:17.884Z,41.15
2018-03-06T05:13:51.813Z,42.22
2018-03-06T05:14:25.724Z,44.75
2018-03-06T05:14:59.641Z,43.58
2018-03-06T05:15:33.507Z,42.22
2018-03-06T05:16:07.387Z,42.10
2018-03-06T05:16:41.320Z,41.47
2018-03-06T05:17:15.202Z,46.47
2018-03-06T05:17:49.112Z,44.03
2018-03-06T05:18:23.428Z,45.67
2018-03-06T05:31:52.419Z,33.95
2018-03-06T05:32:26.314Z,36.85
2018-03-06T05:33:00.285Z,41.50
2018-03-06T05:33:34.150Z,42.20
2018-03-06T05:34:08.217Z,40.72
2018-03-06T05:34:42.114Z,43.83
2018-03-06T05:35:16.022Z,43.17
2018-03-06T05:35:49.912Z,43.45
2018-03-06T05:36:23.817Z,43.47
2018-03-06T05:36:57.730Z,42.53
2018-03-06T05:37:31.617Z,42.58
2018-03-06T05:38:05.528Z,43.80
2018-03-06T05:38:39.427Z,46.20
2018-03-06T05:39:13.306Z,43.85
2018-03-06T05:39:47.223Z,44.17
2018-03-06T05:40:21.135Z,42.35
2018-03-06T05:40:55.025Z,41.80
2018-03-06T05:41:29.217Z,43.97
2018-03-06T05:42:03.115Z,43.33
2018-03-06T05:42:37.454Z,43.50
2018-03-06T05:43:11.365Z,43.45
2018-03-06T05:43:45.460Z,44.90
2018-03-06T05:44:19.357Z,43.05
2018-03-06T05:44:53.252Z,44.00
2018-03-06T05:45:27.146Z,44.08
2018-03-06T05:46:01.037Z,42.45
2018-03-06T05:46:34.945Z,42.55
2018-03-06T05:47:08.837Z,43.40
2018-03-06T05:47:42.764Z,42.45
2018-03-06T05:48:16.647Z,45.08
2018-03-06T05:48:50.542Z,41.47
2018-03-06T05:49:24.425Z,43.28
2018-03-06T05:49:58.325Z,45.70
2018-03-06T05:50:32.214Z,42.05
2018-03-06T05:51:06.128Z,46.78
2018-03-06T05:51:40.032Z,45.30
2018-03-06T05:52:14.875Z,42.67
2018-03-06T05:52:48.789Z,43.70
2018-03-06T05:53:22.680Z,42.92
2018-03-06T05:53:56.591Z,45.47
2018-03-06T05:54:30.484Z,42.95
2018-03-06T05:55:04.376Z,44.47
2018-03-06T05:55:38.272Z,46.33
2018-03-06T05:56:12.163Z,43.78
2018-03-06T05:56:46.077Z,45.05
2018-03-06T05:57:19.998Z,42.47
2018-03-06T05:57:53.890Z,44.65
2018-03-06T05:58:27.793Z,46.65
2018-03-06T05:59:01.679Z,43.42
2018-03-06T05:59:35.573Z,43.58
2018-03-06T06:00:09.782Z,44.28
2018-03-06T06:00:43.676Z,45.20
2018-03-06T06:01:17.576Z,41.22
2018-03-06T06:01:51.474Z,45.88
2018-03-06T06:02:25.412Z,44.45
2018-03-06T06:02:59.299Z,42.90
2018-03-06T06:03:33.190Z,44.75
2018-03-06T06:04:07.099Z,43.55
2018-03-06T06:04:41.036Z,43.80
2018-03-06T06:05:16.857Z,44.88
2018-03-06T06:05:50.756Z,42.13
2018-03-06T06:06:24.642Z,44.80
2018-03-06T06:06:58.540Z,47.22
2018-03-06T06:07:32.452Z,43.53
2018-03-06T06:08:06.346Z,46.90
2018-03-06T06:08:40.244Z,44.45
2018-03-06T06:09:14.440Z,44.15
2018-03-06T06:09:48.334Z,40.75
2018-03-06T06:10:22.241Z,45.20
2018-03-06T06:10:56.144Z,45.03
2018-03-06T06:11:30.026Z,49.03
2018-03-06T06:12:03.951Z,44.95
2018-03-06T06:12:37.914Z,46.60
2018-03-06T06:13:11.858Z,45.53
2018-03-06T06:13:45.909Z,45.12
2018-03-06T06:14:19.771Z,42.88
2018-03-06T06:14:53.657Z,42.80
2018-03-06T06:15:27.548Z,45.92
2018-03-06T06:16:01.499Z,43.20
2018-03-06T06:16:35.395Z,45.15
2018-03-06T06:17:09.650Z,44.65
2018-03-06T06:17:43.541Z,43.05
2018-03-06T06:18:17.438Z,46.42
2018-03-06T06:18:51.303Z,44.03
2018-03-06T06:19:25.177Z,46.55
2018-03-06T06:19:59.088Z,45.80
2018-03-06T06:20:32.973Z,42.65
2018-03-06T06:21:07.166Z,44.00
2018-03-06T06:21:41.043Z,44.08
2018-03-06T06:22:14.962Z,43.53
2018-03-06T06:22:48.845Z,42.75
2018-03-06T06:23:22.949Z,43.42
2018-03-06T06:23:56.827Z,45.42
2018-03-06T06:24:30.707Z,43.63
2018-03-06T06:25:04.649Z,46.10
2018-03-06T06:25:38.553Z,46.13
2018-03-06T06:26:12.422Z,43.33
2018-03-06T06:26:46.301Z,43.83
2018-03-06T06:27:20.199Z,44.47
2018-03-06T06:27:54.111Z,43.78
2018-03-06T06:28:28.012Z,45.85
2018-03-06T06:29:01.885Z,43.67
2018-03-06T06:29:35.748Z,44.55
2018-03-06T06:30:09.644Z,46.05
2018-03-06T06:30:43.527Z,43.80
2018-03-06T06:31:17.426Z,45.63
2018-03-06T06:31:51.357Z,43.78
2018-03-06T06:32:25.237Z,45.60
2018-03-06T06:32:59.177Z,43.47
2018-03-06T06:33:34.093Z,43.95
2018-03-06T06:34:07.985Z,46.40
2018-03-06T06:34:41.897Z,45.58
2018-03-06T06:35:15.771Z,42.88
2018-03-06T06:35:49.705Z,44.03
2018-03-06T06:36:24.317Z,43.70
2018-03-06T06:36:58.194Z,45.28
2018-03-06T06:37:32.120Z,44.03
2018-03-06T06:38:06.033Z,42.85
2018-03-06T06:38:39.951Z,43.15
2018-03-06T06:39:13.888Z,42.55
2018-03-06T06:39:47.756Z,43.83
2018-03-06T06:40:21.641Z,43.50
2018-03-06T06:40:55.630Z,43.13
2018-03-06T06:41:29.553Z,46.83
2018-03-06T06:42:03.444Z,41.30
2018-03-06T06:42:37.361Z,42.47
2018-03-06T06:43:11.296Z,41.72
2018-03-06T06:43:45.193Z,45.45
2018-03-06T06:44:19.132Z,44.10
2018-03-06T06:44:53.842Z,45.50
2018-03-06T06:45:27.797Z,45.58
2018-03-06T06:46:01.707Z,44.22
2018-03-06T06:46:35.643Z,44.17
2018-03-06T06:47:09.530Z,43.58
2018-03-06T06:47:43.421Z,45.15
2018-03-06T06:57:57.352Z,33.97
2018-03-06T06:58:31.260Z,36.63
2018-03-06T06:59:05.186Z,40.78
2018-03-06T06:59:39.065Z,44.83
2018-03-06T07:00:13.076Z,41.20
2018-03-06T07:00:46.973Z,44.78
2018-03-06T07:01:20.859Z,43.25
2018-03-06T07:01:54.747Z,43.47
2018-03-06T07:02:28.632Z,43.05
2018-03-06T07:03:02.536Z,46.58
2018-03-06T07:03:36.678Z,44.78
2018-03-06T07:04:10.564Z,45.22
2018-03-06T07:04:44.441Z,43.13
2018-03-06T07:05:18.314Z,44.05
2018-03-06T07:05:53.155Z,44.13
2018-03-06T07:06:27.116Z,44.13
2018-03-06T07:07:01.037Z,46.47
2018-03-06T07:07:34.973Z,44.78
2018-03-06T07:08:08.865Z,46.65
2018-03-06T07:08:42.729Z,46.37
2018-03-06T07:09:16.614Z,43.87
2018-03-06T07:09:50.490Z,43.08
2018-03-06T07:10:24.402Z,44.97
2018-03-06T07:10:58.313Z,44.63
2018-03-06T07:11:32.195Z,46.58
2018-03-06T07:12:06.094Z,44.50
2018-03-06T07:12:39.993Z,44.00
2018-03-06T07:13:14.011Z,44.38
2018-03-06T07:13:47.869Z,44.53
2018-03-06T07:14:21.744Z,45.58
2018-03-06T07:14:56.054Z,43.47
2018-03-06T07:15:29.928Z,45.30
2018-03-06T07:16:03.804Z,44.00
2018-03-06T07:16:38.384Z,47.28
2018-03-06T07:17:25.477Z,44.50
2018-03-06T07:18:01.000Z,43.83
2018-03-06T07:28:14.920Z,35.40
2018-03-06T07:28:48.850Z,39.25
2018-03-06T07:29:22.734Z,41.20
2018-03-06T07:29:56.616Z,41.53
2018-03-06T07:30:30.516Z,42.92
2018-03-06T07:31:04.373Z,41.20
2018-03-06T07:31:38.232Z,43.33
2018-03-06T07:32:12.101Z,44.47
2018-03-06T07:32:45.999Z,45.42
2018-03-06T07:33:19.873Z,44.47
2018-03-06T07:33:53.821Z,43.38
2018-03-06T07:34:28.517Z,44.78
2018-03-06T07:35:02.442Z,48.20
2018-03-06T07:35:36.323Z,45.08
2018-03-06T07:36:10.293Z,46.95
2018-03-06T07:36:44.168Z,47.22
2018-03-06T07:37:18.520Z,45.88
2018-03-06T07:37:52.396Z,46.60
2018-03-06T07:38:26.269Z,46.13
2018-03-06T07:39:00.205Z,46.67
2018-03-06T07:39:34.068Z,44.53
2018-03-06T07:40:07.976Z,44.60
2018-03-06T07:40:41.895Z,45.17
2018-03-06T07:41:15.765Z,45.08
2018-03-06T07:41:49.663Z,48.35
2018-03-06T07:42:23.590Z,43.03
2018-03-06T07:42:57.885Z,45.78
2018-03-06T07:43:31.794Z,43.42
2018-03-06T07:44:05.730Z,43.70
2018-03-06T07:44:39.648Z,46.03
2018-03-06T07:45:13.517Z,44.72
2018-03-06T07:45:47.485Z,44.67
2018-03-06T07:46:21.394Z,45.58
2018-03-06T07:46:55.269Z,44.38
2018-03-06T07:47:29.119Z,44.25
2018-03-06T07:48:02.988Z,44.47
2018-03-06T07:48:37.037Z,44.28
2018-03-06T07:49:10.906Z,41.83
2018-03-06T07:49:44.778Z,43.53
2018-03-06T07:50:18.684Z,43.42
2018-03-06T07:50:52.568Z,47.00
2018-03-06T07:51:26.460Z,43.72
2018-03-06T07:52:00.375Z,45.33
2018-03-06T07:52:34.258Z,46.75
2018-03-06T07:53:08.155Z,44.83
2018-03-06T07:53:42.067Z,44.58
2018-03-06T07:54:15.936Z,44.17
2018-03-06T07:54:49.840Z,42.85
2018-03-06T07:55:23.728Z,44.17
2018-03-06T07:55:57.658Z,42.30
2018-03-06T07:56:31.551Z,42.65
2018-03-06T07:57:05.447Z,42.38
2018-03-06T07:57:39.325Z,43.58
2018-03-06T07:58:13.249Z,45.42
2018-03-06T07:58:47.142Z,44.05
2018-03-06T07:59:21.027Z,42.45
2018-03-06T07:59:54.920Z,43.60
2018-03-06T08:00:28.829Z,44.50
2018-03-06T08:01:02.698Z,43.50
2018-03-06T08:01:36.603Z,46.33
2018-03-06T08:02:10.458Z,44.13
2018-03-06T08:02:44.359Z,44.58
2018-03-06T08:03:18.254Z,42.30
2018-03-06T08:03:52.191Z,44.78
2018-03-06T08:04:26.796Z,42.62